sensor_id;sensor_type;location;lat;lon;timestamp;P1;durP1;ratioP1;P2;durP2;ratioP2
46607;SDS011;32330;51.936;7.184;2023-09-08T03:49:17;7.28;;;6.65;;
46607;SDS011;32330;51.936;7.184;2023-09-08T03:51:45;8.02;;;7.03;;
46607;SDS011;32330;51.936;7.184;2023-09-08T03:54:12;7.50;;;6.68;;
46607;SDS011;32330;51.936;7.184;2023-09-08T03:56:39;7.78;;;7.05;;
46607;SDS011;32330;51.936;7.184;2023-09-08T03:59:06;7.53;;;6.82;;
46607;SDS011;32330;51.936;7.184;2023-09-08T04:04:15;7.65;;;6.88;;
46607;SDS011;32330;51.936;7.184;2023-09-08T04:06:44;7.75;;;6.97;;
46607;SDS011;32330;51.936;7.184;2023-09-08T04:09:12;8.23;;;6.88;;
46607;SDS011;32330;51.936;7.184;2023-09-08T04:11:39;8.25;;;6.75;;
46607;SDS011;32330;51.936;7.184;2023-09-08T04:14:06;7.57;;;6.63;;
46607;SDS011;32330;51.936;7.184;2023-09-08T04:16:33;10.05;;;6.75;;
46607;SDS011;32330;51.936;7.184;2023-09-08T04:19:00;7.88;;;7.18;;
46607;SDS011;32330;51.936;7.184;2023-09-08T04:21:27;16.45;;;14.75;;
46607;SDS011;32330;51.936;7.184;2023-09-08T04:23:55;10.80;;;9.32;;
46607;SDS011;32330;51.936;7.184;2023-09-08T04:26:22;9.18;;;7.80;;
46607;SDS011;32330;51.936;7.184;2023-09-08T04:28:49;7.60;;;6.90;;
46607;SDS011;32330;51.936;7.184;2023-09-08T04:31:16;6.40;;;5.80;;
46607;SDS011;32330;51.936;7.184;2023-09-08T04:33:44;9.00;;;6.90;;
46607;SDS011;32330;51.936;7.184;2023-09-08T04:36:11;8.02;;;7.22;;
46607;SDS011;32330;51.936;7.184;2023-09-08T04:38:39;7.22;;;6.53;;
46607;SDS011;32330;51.936;7.184;2023-09-08T04:41:10;6.95;;;6.18;;
46607;SDS011;32330;51.936;7.184;2023-09-08T04:43:37;6.47;;;5.88;;
46607;SDS011;32330;51.936;7.184;2023-09-08T04:46:04;7.05;;;6.38;;
46607;SDS011;32330;51.936;7.184;2023-09-08T04:48:31;7.38;;;6.55;;
46607;SDS011;32330;51.936;7.184;2023-09-08T04:50:58;6.85;;;6.07;;
46607;SDS011;32330;51.936;7.184;2023-09-08T04:53:27;6.90;;;6.13;;
46607;SDS011;32330;51.936;7.184;2023-09-08T04:55:54;6.55;;;5.85;;
46607;SDS011;32330;51.936;7.184;2023-09-08T04:58:22;6.45;;;5.85;;
46607;SDS011;32330;51.936;7.184;2023-09-08T05:00:49;7.35;;;6.55;;
46607;SDS011;32330;51.936;7.184;2023-09-08T05:03:17;6.60;;;6.00;;
46607;SDS011;32330;51.936;7.184;2023-09-08T05:05:46;7.53;;;6.18;;
46607;SDS011;32330;51.936;7.184;2023-09-08T05:08:13;7.25;;;6.53;;
46607;SDS011;32330;51.936;7.184;2023-09-08T05:10:41;6.97;;;6.10;;
46607;SDS011;32330;51.936;7.184;2023-09-08T05:13:10;6.97;;;6.22;;
46607;SDS011;32330;51.936;7.184;2023-09-08T05:15:38;7.32;;;6.10;;
46607;SDS011;32330;51.936;7.184;2023-09-08T05:18:07;8.60;;;5.73;;
46607;SDS011;32330;51.936;7.184;2023-09-08T05:20:34;7.18;;;6.32;;
46607;SDS011;32330;51.936;7.184;2023-09-08T05:23:01;7.85;;;6.22;;
46607;SDS011;32330;51.936;7.184;2023-09-08T05:25:28;7.03;;;5.97;;
46607;SDS011;32330;51.936;7.184;2023-09-08T05:27:55;9.98;;;5.80;;
46607;SDS011;32330;51.936;7.184;2023-09-08T05:30:23;8.82;;;6.03;;
46607;SDS011;32330;51.936;7.184;2023-09-08T05:32:51;7.53;;;6.18;;
46607;SDS011;32330;51.936;7.184;2023-09-08T05:35:19;7.65;;;6.22;;
46607;SDS011;32330;51.936;7.184;2023-09-08T05:37:47;8.82;;;5.95;;
46607;SDS011;32330;51.936;7.184;2023-09-08T05:40:15;6.70;;;6.10;;
46607;SDS011;32330;51.936;7.184;2023-09-08T05:42:44;6.28;;;5.68;;
46607;SDS011;32330;51.936;7.184;2023-09-08T05:45:11;6.25;;;5.65;;
46607;SDS011;32330;51.936;7.184;2023-09-08T05:47:38;7.50;;;5.47;;
46607;SDS011;32330;51.936;7.184;2023-09-08T05:50:07;6.57;;;5.90;;
46607;SDS011;32330;51.936;7.184;2023-09-08T05:52:35;7.10;;;5.55;;
46607;SDS011;32330;51.936;7.184;2023-09-08T05:55:03;6.65;;;5.10;;
46607;SDS011;32330;51.936;7.184;2023-09-08T05:57:30;6.78;;;6.00;;
46607;SDS011;32330;51.936;7.184;2023-09-08T06:00:00;6.20;;;5.43;;
46607;SDS011;32330;51.936;7.184;2023-09-08T06:02:27;7.63;;;5.80;;
46607;SDS011;32330;51.936;7.184;2023-09-08T06:04:55;7.00;;;5.28;;
46607;SDS011;32330;51.936;7.184;2023-09-08T06:07:23;5.60;;;5.10;;
46607;SDS011;32330;51.936;7.184;2023-09-08T06:09:50;5.50;;;5.00;;
46607;SDS011;32330;51.936;7.184;2023-09-08T06:12:17;6.53;;;5.30;;
46607;SDS011;32330;51.936;7.184;2023-09-08T06:14:44;6.43;;;4.80;;
46607;SDS011;32330;51.936;7.184;2023-09-08T06:17:12;6.72;;;4.80;;
46607;SDS011;32330;51.936;7.184;2023-09-08T06:19:39;9.32;;;4.80;;
46607;SDS011;32330;51.936;7.184;2023-09-08T06:22:06;8.73;;;4.97;;
46607;SDS011;32330;51.936;7.184;2023-09-08T06:24:35;5.53;;;4.18;;
46607;SDS011;32330;51.936;7.184;2023-09-08T06:27:02;7.07;;;4.85;;
46607;SDS011;32330;51.936;7.184;2023-09-08T06:29:29;5.38;;;4.38;;
46607;SDS011;32330;51.936;7.184;2023-09-08T06:31:56;5.35;;;4.35;;
46607;SDS011;32330;51.936;7.184;2023-09-08T06:34:24;7.72;;;4.60;;
46607;SDS011;32330;51.936;7.184;2023-09-08T06:36:51;7.38;;;4.60;;
46607;SDS011;32330;51.936;7.184;2023-09-08T06:39:18;5.15;;;4.28;;
46607;SDS011;32330;51.936;7.184;2023-09-08T06:41:46;7.13;;;3.75;;
46607;SDS011;32330;51.936;7.184;2023-09-08T06:44:16;5.25;;;4.03;;
46607;SDS011;32330;51.936;7.184;2023-09-08T06:46:44;7.45;;;5.03;;
46607;SDS011;32330;51.936;7.184;2023-09-08T06:49:11;4.78;;;4.15;;
46607;SDS011;32330;51.936;7.184;2023-09-08T06:51:38;5.63;;;4.30;;
46607;SDS011;32330;51.936;7.184;2023-09-08T06:54:05;6.43;;;4.38;;
46607;SDS011;32330;51.936;7.184;2023-09-08T06:56:37;6.93;;;4.63;;
46607;SDS011;32330;51.936;7.184;2023-09-08T06:59:07;5.43;;;4.30;;
46607;SDS011;32330;51.936;7.184;2023-09-08T07:01:34;6.40;;;3.90;;
46607;SDS011;32330;51.936;7.184;2023-09-08T07:04:01;5.38;;;4.88;;
46607;SDS011;32330;51.936;7.184;2023-09-08T07:06:29;6.00;;;4.05;;
46607;SDS011;32330;51.936;7.184;2023-09-08T07:08:57;5.45;;;3.70;;
46607;SDS011;32330;51.936;7.184;2023-09-08T07:11:24;5.55;;;4.20;;
46607;SDS011;32330;51.936;7.184;2023-09-08T07:13:52;6.82;;;4.05;;
46607;SDS011;32330;51.936;7.184;2023-09-08T07:16:20;5.88;;;4.18;;
46607;SDS011;32330;51.936;7.184;2023-09-08T07:18:48;4.75;;;4.00;;
46607;SDS011;32330;51.936;7.184;2023-09-08T07:21:15;5.70;;;3.83;;
46607;SDS011;32330;51.936;7.184;2023-09-08T07:23:42;4.65;;;3.80;;
46607;SDS011;32330;51.936;7.184;2023-09-08T07:26:12;4.75;;;3.75;;
46607;SDS011;32330;51.936;7.184;2023-09-08T07:28:40;4.10;;;3.70;;
46607;SDS011;32330;51.936;7.184;2023-09-08T07:31:10;6.45;;;3.72;;
46607;SDS011;32330;51.936;7.184;2023-09-08T07:33:42;4.95;;;4.00;;
46607;SDS011;32330;51.936;7.184;2023-09-08T07:36:10;6.63;;;3.83;;
46607;SDS011;32330;51.936;7.184;2023-09-08T07:38:39;6.57;;;4.00;;
46607;SDS011;32330;51.936;7.184;2023-09-08T07:41:07;4.32;;;3.92;;
46607;SDS011;32330;51.936;7.184;2023-09-08T07:43:34;7.82;;;3.85;;
46607;SDS011;32330;51.936;7.184;2023-09-08T07:46:06;4.28;;;3.63;;
46607;SDS011;32330;51.936;7.184;2023-09-08T07:48:33;4.70;;;3.35;;
46607;SDS011;32330;51.936;7.184;2023-09-08T07:51:02;8.88;;;3.90;;
46607;SDS011;32330;51.936;7.184;2023-09-08T07:53:29;7.25;;;4.03;;
46607;SDS011;32330;51.936;7.184;2023-09-08T07:55:56;5.68;;;3.92;;
46607;SDS011;32330;51.936;7.184;2023-09-08T07:58:23;5.93;;;4.22;;
46607;SDS011;32330;51.936;7.184;2023-09-08T08:00:50;5.22;;;3.92;;
46607;SDS011;32330;51.936;7.184;2023-09-08T08:03:17;4.40;;;4.00;;
46607;SDS011;32330;51.936;7.184;2023-09-08T08:05:44;5.78;;;4.30;;
46607;SDS011;32330;51.936;7.184;2023-09-08T08:08:12;4.88;;;4.28;;
46607;SDS011;32330;51.936;7.184;2023-09-08T08:10:40;5.00;;;4.43;;
46607;SDS011;32330;51.936;7.184;2023-09-08T08:13:07;5.30;;;4.70;;
46607;SDS011;32330;51.936;7.184;2023-09-08T08:15:34;4.57;;;3.88;;
46607;SDS011;32330;51.936;7.184;2023-09-08T08:18:03;8.15;;;4.30;;
46607;SDS011;32330;51.936;7.184;2023-09-08T08:20:30;5.82;;;4.13;;
46607;SDS011;32330;51.936;7.184;2023-09-08T08:23:00;8.98;;;4.75;;
46607;SDS011;32330;51.936;7.184;2023-09-08T08:25:28;5.70;;;4.05;;
46607;SDS011;32330;51.936;7.184;2023-09-08T08:27:55;5.75;;;4.13;;
46607;SDS011;32330;51.936;7.184;2023-09-08T08:30:23;8.75;;;4.22;;
46607;SDS011;32330;51.936;7.184;2023-09-08T08:32:50;10.00;;;4.30;;
46607;SDS011;32330;51.936;7.184;2023-09-08T08:35:18;9.05;;;3.80;;
46607;SDS011;32330;51.936;7.184;2023-09-08T08:37:45;6.25;;;3.90;;
46607;SDS011;32330;51.936;7.184;2023-09-08T08:40:12;6.78;;;4.97;;
46607;SDS011;32330;51.936;7.184;2023-09-08T08:42:41;6.47;;;4.15;;
46607;SDS011;32330;51.936;7.184;2023-09-08T08:45:09;5.05;;;4.20;;
46607;SDS011;32330;51.936;7.184;2023-09-08T08:47:37;4.85;;;3.78;;
46607;SDS011;32330;51.936;7.184;2023-09-08T08:50:04;5.63;;;3.80;;
46607;SDS011;32330;51.936;7.184;2023-09-08T08:52:36;5.00;;;3.35;;
46607;SDS011;32330;51.936;7.184;2023-09-08T08:55:04;6.40;;;4.35;;
46607;SDS011;32330;51.936;7.184;2023-09-08T08:57:31;6.25;;;4.28;;
46607;SDS011;32330;51.936;7.184;2023-09-08T09:00:00;4.82;;;3.33;;
46607;SDS011;32330;51.936;7.184;2023-09-08T09:02:30;5.00;;;4.13;;
46607;SDS011;32330;51.936;7.184;2023-09-08T09:04:57;7.07;;;3.70;;
46607;SDS011;32330;51.936;7.184;2023-09-08T09:07:24;8.75;;;4.55;;
46607;SDS011;32330;51.936;7.184;2023-09-08T09:09:52;5.10;;;3.45;;
46607;SDS011;32330;51.936;7.184;2023-09-08T09:12:21;5.20;;;3.70;;
46607;SDS011;32330;51.936;7.184;2023-09-08T09:14:48;4.72;;;3.53;;
46607;SDS011;32330;51.936;7.184;2023-09-08T09:17:21;5.22;;;3.72;;
46607;SDS011;32330;51.936;7.184;2023-09-08T09:19:48;4.15;;;3.35;;
46607;SDS011;32330;51.936;7.184;2023-09-08T09:22:15;3.85;;;3.35;;
46607;SDS011;32330;51.936;7.184;2023-09-08T09:24:47;6.53;;;3.17;;
46607;SDS011;32330;51.936;7.184;2023-09-08T09:27:14;3.85;;;3.53;;
46607;SDS011;32330;51.936;7.184;2023-09-08T09:29:45;5.95;;;3.40;;
46607;SDS011;32330;51.936;7.184;2023-09-08T09:32:13;4.18;;;3.38;;
46607;SDS011;32330;51.936;7.184;2023-09-08T09:34:48;3.50;;;3.17;;
46607;SDS011;32330;51.936;7.184;2023-09-08T09:37:16;5.20;;;3.20;;
46607;SDS011;32330;51.936;7.184;2023-09-08T09:39:48;7.82;;;4.03;;
46607;SDS011;32330;51.936;7.184;2023-09-08T09:42:15;5.55;;;3.28;;
46607;SDS011;32330;51.936;7.184;2023-09-08T09:44:42;8.75;;;3.90;;
46607;SDS011;32330;51.936;7.184;2023-09-08T09:47:10;6.35;;;4.05;;
46607;SDS011;32330;51.936;7.184;2023-09-08T09:49:41;5.13;;;3.55;;
46607;SDS011;32330;51.936;7.184;2023-09-08T09:52:10;6.38;;;3.20;;
46607;SDS011;32330;51.936;7.184;2023-09-08T09:54:39;4.20;;;3.53;;
46607;SDS011;32330;51.936;7.184;2023-09-08T09:57:07;4.65;;;3.80;;
46607;SDS011;32330;51.936;7.184;2023-09-08T09:59:35;4.78;;;3.33;;
46607;SDS011;32330;51.936;7.184;2023-09-08T10:02:03;6.15;;;4.55;;
46607;SDS011;32330;51.936;7.184;2023-09-08T10:04:30;6.72;;;3.70;;
46607;SDS011;32330;51.936;7.184;2023-09-08T10:06:58;8.35;;;3.30;;
46607;SDS011;32330;51.936;7.184;2023-09-08T10:09:27;6.70;;;3.42;;
46607;SDS011;32330;51.936;7.184;2023-09-08T10:11:54;8.45;;;3.75;;
46607;SDS011;32330;51.936;7.184;2023-09-08T10:14:25;8.10;;;3.22;;
46607;SDS011;32330;51.936;7.184;2023-09-08T10:16:56;5.35;;;3.33;;
46607;SDS011;32330;51.936;7.184;2023-09-08T10:19:26;5.60;;;3.20;;
46607;SDS011;32330;51.936;7.184;2023-09-08T10:21:55;5.57;;;3.63;;
46607;SDS011;32330;51.936;7.184;2023-09-08T10:24:27;4.38;;;3.28;;
46607;SDS011;32330;51.936;7.184;2023-09-08T10:27:00;5.05;;;3.00;;
46607;SDS011;32330;51.936;7.184;2023-09-08T10:29:33;5.70;;;3.25;;
46607;SDS011;32330;51.936;7.184;2023-09-08T10:32:01;6.90;;;3.67;;
46607;SDS011;32330;51.936;7.184;2023-09-08T10:34:30;7.05;;;3.10;;
46607;SDS011;32330;51.936;7.184;2023-09-08T10:36:59;3.95;;;3.30;;
46607;SDS011;32330;51.936;7.184;2023-09-08T10:39:31;8.35;;;3.40;;
46607;SDS011;32330;51.936;7.184;2023-09-08T10:44:55;5.95;;;3.20;;
46607;SDS011;32330;51.936;7.184;2023-09-08T10:47:33;5.75;;;3.17;;
46607;SDS011;32330;51.936;7.184;2023-09-08T10:50:07;6.50;;;3.33;;
46607;SDS011;32330;51.936;7.184;2023-09-08T10:52:42;5.55;;;3.30;;
46607;SDS011;32330;51.936;7.184;2023-09-08T10:55:10;7.55;;;3.67;;
46607;SDS011;32330;51.936;7.184;2023-09-08T10:57:38;6.03;;;3.42;;
46607;SDS011;32330;51.936;7.184;2023-09-08T11:00:11;4.47;;;3.30;;
46607;SDS011;32330;51.936;7.184;2023-09-08T11:02:48;4.47;;;3.03;;
46607;SDS011;32330;51.936;7.184;2023-09-08T11:05:15;6.57;;;3.90;;
46607;SDS011;32330;51.936;7.184;2023-09-08T11:07:45;6.35;;;3.28;;
46607;SDS011;32330;51.936;7.184;2023-09-08T11:10:16;6.18;;;3.22;;
46607;SDS011;32330;51.936;7.184;2023-09-08T11:12:43;6.43;;;3.45;;
46607;SDS011;32330;51.936;7.184;2023-09-08T11:15:10;4.68;;;3.55;;
46607;SDS011;32330;51.936;7.184;2023-09-08T11:17:37;5.05;;;3.30;;
46607;SDS011;32330;51.936;7.184;2023-09-08T11:20:07;6.30;;;3.27;;
46607;SDS011;32330;51.936;7.184;2023-09-08T11:22:36;7.95;;;3.75;;
46607;SDS011;32330;51.936;7.184;2023-09-08T11:25:06;7.00;;;4.07;;
46607;SDS011;32330;51.936;7.184;2023-09-08T11:27:37;6.17;;;4.10;;
46607;SDS011;32330;51.936;7.184;2023-09-08T11:30:05;3.58;;;2.95;;
46607;SDS011;32330;51.936;7.184;2023-09-08T11:32:34;5.68;;;3.90;;
46607;SDS011;32330;51.936;7.184;2023-09-08T11:35:03;7.15;;;3.35;;
46607;SDS011;32330;51.936;7.184;2023-09-08T11:37:34;5.43;;;3.30;;
46607;SDS011;32330;51.936;7.184;2023-09-08T11:40:02;6.00;;;3.38;;
46607;SDS011;32330;51.936;7.184;2023-09-08T11:42:39;4.05;;;3.35;;
46607;SDS011;32330;51.936;7.184;2023-09-08T11:45:10;4.38;;;3.75;;
46607;SDS011;32330;51.936;7.184;2023-09-08T11:47:39;4.38;;;3.42;;
46607;SDS011;32330;51.936;7.184;2023-09-08T11:50:08;4.97;;;3.50;;
46607;SDS011;32330;51.936;7.184;2023-09-08T11:52:37;3.67;;;3.30;;
46607;SDS011;32330;51.936;7.184;2023-09-08T11:55:05;6.00;;;3.38;;
46607;SDS011;32330;51.936;7.184;2023-09-08T11:57:33;4.93;;;3.35;;
46607;SDS011;32330;51.936;7.184;2023-09-08T12:00:02;4.97;;;3.35;;
46607;SDS011;32330;51.936;7.184;2023-09-08T12:05:00;4.70;;;3.00;;
46607;SDS011;32330;51.936;7.184;2023-09-08T12:07:27;6.15;;;3.67;;
46607;SDS011;32330;51.936;7.184;2023-09-08T12:09:54;6.72;;;3.80;;
46607;SDS011;32330;51.936;7.184;2023-09-08T12:12:24;3.88;;;3.45;;
46607;SDS011;32330;51.936;7.184;2023-09-08T12:14:55;6.57;;;3.88;;
46607;SDS011;32330;51.936;7.184;2023-09-08T12:17:23;3.97;;;3.50;;
46607;SDS011;32330;51.936;7.184;2023-09-08T12:19:51;3.92;;;3.35;;
46607;SDS011;32330;51.936;7.184;2023-09-08T12:22:18;5.72;;;3.83;;
46607;SDS011;32330;51.936;7.184;2023-09-08T12:24:56;6.63;;;3.55;;
46607;SDS011;32330;51.936;7.184;2023-09-08T12:27:24;4.35;;;3.40;;
46607;SDS011;32330;51.936;7.184;2023-09-08T12:29:51;6.60;;;3.80;;
46607;SDS011;32330;51.936;7.184;2023-09-08T12:32:24;6.85;;;3.65;;
46607;SDS011;32330;51.936;7.184;2023-09-08T12:34:52;4.15;;;3.47;;
46607;SDS011;32330;51.936;7.184;2023-09-08T12:37:19;4.85;;;4.28;;
46607;SDS011;32330;51.936;7.184;2023-09-08T12:39:47;5.50;;;3.50;;
46607;SDS011;32330;51.936;7.184;2023-09-08T12:42:17;4.72;;;3.00;;
46607;SDS011;32330;51.936;7.184;2023-09-08T12:44:45;5.93;;;3.80;;
46607;SDS011;32330;51.936;7.184;2023-09-08T12:47:12;5.38;;;4.07;;
46607;SDS011;32330;51.936;7.184;2023-09-08T12:49:40;5.32;;;3.40;;
46607;SDS011;32330;51.936;7.184;2023-09-08T12:52:07;3.90;;;3.08;;
46607;SDS011;32330;51.936;7.184;2023-09-08T12:54:34;5.15;;;3.38;;
46607;SDS011;32330;51.936;7.184;2023-09-08T12:57:02;5.50;;;4.03;;
46607;SDS011;32330;51.936;7.184;2023-09-08T12:59:29;3.85;;;3.35;;
46607;SDS011;32330;51.936;7.184;2023-09-08T13:01:56;3.85;;;3.30;;
46607;SDS011;32330;51.936;7.184;2023-09-08T13:04:23;4.78;;;3.47;;
46607;SDS011;32330;51.936;7.184;2023-09-08T13:06:52;6.63;;;3.40;;
46607;SDS011;32330;51.936;7.184;2023-09-08T13:09:19;6.53;;;3.53;;
46607;SDS011;32330;51.936;7.184;2023-09-08T13:11:47;6.30;;;3.90;;
46607;SDS011;32330;51.936;7.184;2023-09-08T13:14:14;6.97;;;4.18;;
46607;SDS011;32330;51.936;7.184;2023-09-08T13:16:41;4.20;;;3.80;;
46607;SDS011;32330;51.936;7.184;2023-09-08T13:19:08;5.13;;;3.40;;
46607;SDS011;32330;51.936;7.184;2023-09-08T13:21:35;3.40;;;3.10;;
46607;SDS011;32330;51.936;7.184;2023-09-08T13:24:05;4.18;;;3.25;;
46607;SDS011;32330;51.936;7.184;2023-09-08T13:26:33;6.38;;;3.72;;
46607;SDS011;32330;51.936;7.184;2023-09-08T13:29:00;5.18;;;3.50;;
46607;SDS011;32330;51.936;7.184;2023-09-08T13:31:28;5.05;;;3.40;;
46607;SDS011;32330;51.936;7.184;2023-09-08T13:33:55;5.20;;;3.50;;
46607;SDS011;32330;51.936;7.184;2023-09-08T13:36:22;3.63;;;3.33;;
46607;SDS011;32330;51.936;7.184;2023-09-08T13:38:49;4.03;;;3.47;;
46607;SDS011;32330;51.936;7.184;2023-09-08T13:41:17;4.60;;;3.45;;
46607;SDS011;32330;51.936;7.184;2023-09-08T13:43:44;3.88;;;3.20;;
46607;SDS011;32330;51.936;7.184;2023-09-08T13:46:11;4.95;;;3.30;;
46607;SDS011;32330;51.936;7.184;2023-09-08T13:48:39;4.65;;;3.20;;
46607;SDS011;32330;51.936;7.184;2023-09-08T13:51:06;4.88;;;3.08;;
46607;SDS011;32330;51.936;7.184;2023-09-08T13:53:33;4.07;;;3.67;;
46607;SDS011;32330;51.936;7.184;2023-09-08T13:56:00;5.70;;;3.22;;
46607;SDS011;32330;51.936;7.184;2023-09-08T13:58:31;4.07;;;3.08;;
46607;SDS011;32330;51.936;7.184;2023-09-08T14:00:58;5.65;;;3.65;;
46607;SDS011;32330;51.936;7.184;2023-09-08T14:03:25;4.28;;;3.40;;
46607;SDS011;32330;51.936;7.184;2023-09-08T14:05:52;5.63;;;3.30;;
46607;SDS011;32330;51.936;7.184;2023-09-08T14:08:19;3.85;;;3.10;;
46607;SDS011;32330;51.936;7.184;2023-09-08T14:10:46;5.20;;;3.03;;
46607;SDS011;32330;51.936;7.184;2023-09-08T14:13:13;5.53;;;2.97;;
46607;SDS011;32330;51.936;7.184;2023-09-08T14:15:42;4.85;;;3.42;;
46607;SDS011;32330;51.936;7.184;2023-09-08T14:18:10;4.53;;;3.25;;
46607;SDS011;32330;51.936;7.184;2023-09-08T14:21:13;3.72;;;3.42;;
46607;SDS011;32330;51.936;7.184;2023-09-08T14:23:40;4.05;;;2.80;;
46607;SDS011;32330;51.936;7.184;2023-09-08T14:26:09;3.78;;;3.38;;
46607;SDS011;32330;51.936;7.184;2023-09-08T14:28:36;5.18;;;3.40;;
46607;SDS011;32330;51.936;7.184;2023-09-08T14:31:04;3.63;;;2.95;;
46607;SDS011;32330;51.936;7.184;2023-09-08T14:33:31;4.95;;;3.22;;
46607;SDS011;32330;51.936;7.184;2023-09-08T14:36:01;5.97;;;3.25;;
46607;SDS011;32330;51.936;7.184;2023-09-08T14:38:28;3.53;;;3.17;;
46607;SDS011;32330;51.936;7.184;2023-09-08T14:40:56;2.97;;;2.60;;
46607;SDS011;32330;51.936;7.184;2023-09-08T14:43:24;8.25;;;3.67;;
46607;SDS011;32330;51.936;7.184;2023-09-08T14:45:51;4.43;;;3.10;;
46607;SDS011;32330;51.936;7.184;2023-09-08T14:48:20;6.35;;;3.53;;
46607;SDS011;32330;51.936;7.184;2023-09-08T14:50:47;4.75;;;3.20;;
46607;SDS011;32330;51.936;7.184;2023-09-08T14:53:14;6.00;;;3.00;;
46607;SDS011;32330;51.936;7.184;2023-09-08T14:55:41;3.85;;;3.13;;
46607;SDS011;32330;51.936;7.184;2023-09-08T14:58:09;5.32;;;3.00;;
46607;SDS011;32330;51.936;7.184;2023-09-08T15:00:38;5.43;;;3.38;;
46607;SDS011;32330;51.936;7.184;2023-09-08T15:03:05;11.30;;;9.50;;
46607;SDS011;32330;51.936;7.184;2023-09-08T15:05:33;4.75;;;3.53;;
46607;SDS011;32330;51.936;7.184;2023-09-08T15:08:01;3.38;;;3.08;;
46607;SDS011;32330;51.936;7.184;2023-09-08T15:10:28;4.00;;;3.60;;
46607;SDS011;32330;51.936;7.184;2023-09-08T15:12:55;4.10;;;2.67;;
46607;SDS011;32330;51.936;7.184;2023-09-08T15:15:22;5.05;;;3.28;;
46607;SDS011;32330;51.936;7.184;2023-09-08T15:17:50;3.95;;;3.10;;
46607;SDS011;32330;51.936;7.184;2023-09-08T15:20:17;3.83;;;3.13;;
46607;SDS011;32330;51.936;7.184;2023-09-08T15:22:46;5.60;;;3.40;;
46607;SDS011;32330;51.936;7.184;2023-09-08T15:25:13;5.05;;;3.40;;
46607;SDS011;32330;51.936;7.184;2023-09-08T15:27:40;3.83;;;3.15;;
46607;SDS011;32330;51.936;7.184;2023-09-08T15:30:08;3.58;;;3.00;;
46607;SDS011;32330;51.936;7.184;2023-09-08T15:32:36;5.68;;;3.70;;
46607;SDS011;32330;51.936;7.184;2023-09-08T15:35:05;4.85;;;3.42;;
46607;SDS011;32330;51.936;7.184;2023-09-08T15:37:32;4.75;;;3.38;;
46607;SDS011;32330;51.936;7.184;2023-09-08T15:40:00;6.35;;;3.67;;
46607;SDS011;32330;51.936;7.184;2023-09-08T15:42:28;3.28;;;2.85;;
46607;SDS011;32330;51.936;7.184;2023-09-08T15:44:55;4.38;;;3.20;;
46607;SDS011;32330;51.936;7.184;2023-09-08T15:47:23;7.53;;;3.25;;
46607;SDS011;32330;51.936;7.184;2023-09-08T15:49:50;3.38;;;3.08;;
46607;SDS011;32330;51.936;7.184;2023-09-08T15:52:17;3.60;;;3.30;;
46607;SDS011;32330;51.936;7.184;2023-09-08T15:54:44;4.30;;;3.60;;
46607;SDS011;32330;51.936;7.184;2023-09-08T15:57:12;4.28;;;3.30;;
46607;SDS011;32330;51.936;7.184;2023-09-08T15:59:39;3.85;;;3.15;;
46607;SDS011;32330;51.936;7.184;2023-09-08T16:02:06;5.85;;;3.20;;
46607;SDS011;32330;51.936;7.184;2023-09-08T16:04:33;3.47;;;3.15;;
46607;SDS011;32330;51.936;7.184;2023-09-08T16:07:00;4.13;;;3.45;;
46607;SDS011;32330;51.936;7.184;2023-09-08T16:09:28;6.15;;;3.20;;
46607;SDS011;32330;51.936;7.184;2023-09-08T16:11:55;3.75;;;3.13;;
46607;SDS011;32330;51.936;7.184;2023-09-08T16:14:23;4.78;;;3.17;;
46607;SDS011;32330;51.936;7.184;2023-09-08T16:16:53;5.50;;;2.97;;
46607;SDS011;32330;51.936;7.184;2023-09-08T16:19:20;3.90;;;3.22;;
46607;SDS011;32330;51.936;7.184;2023-09-08T16:21:47;3.53;;;3.10;;
46607;SDS011;32330;51.936;7.184;2023-09-08T16:24:14;3.80;;;3.03;;
46607;SDS011;32330;51.936;7.184;2023-09-08T16:26:41;5.53;;;3.67;;
46607;SDS011;32330;51.936;7.184;2023-09-08T16:29:08;5.15;;;3.20;;
46607;SDS011;32330;51.936;7.184;2023-09-08T16:31:36;3.22;;;2.92;;
46607;SDS011;32330;51.936;7.184;2023-09-08T16:34:03;5.20;;;3.50;;
46607;SDS011;32330;51.936;7.184;2023-09-08T16:36:30;5.32;;;3.53;;
46607;SDS011;32330;51.936;7.184;2023-09-08T16:38:57;4.43;;;3.50;;
46607;SDS011;32330;51.936;7.184;2023-09-08T16:41:24;5.70;;;3.47;;
46607;SDS011;32330;51.936;7.184;2023-09-08T16:43:51;5.88;;;3.30;;
46607;SDS011;32330;51.936;7.184;2023-09-08T16:46:18;6.15;;;4.15;;
46607;SDS011;32330;51.936;7.184;2023-09-08T16:48:46;3.85;;;3.45;;
46607;SDS011;32330;51.936;7.184;2023-09-08T16:51:14;3.92;;;3.60;;
46607;SDS011;32330;51.936;7.184;2023-09-08T16:53:41;6.57;;;3.70;;
46607;SDS011;32330;51.936;7.184;2023-09-08T16:56:08;4.63;;;3.70;;
46607;SDS011;32330;51.936;7.184;2023-09-08T16:58:35;5.57;;;3.33;;
46607;SDS011;32330;51.936;7.184;2023-09-08T17:01:02;4.80;;;3.83;;
46607;SDS011;32330;51.936;7.184;2023-09-08T17:03:29;6.65;;;3.92;;
46607;SDS011;32330;51.936;7.184;2023-09-08T17:05:57;9.38;;;8.48;;
46607;SDS011;32330;51.936;7.184;2023-09-08T17:08:25;5.63;;;4.97;;
46607;SDS011;32330;51.936;7.184;2023-09-08T17:10:53;6.65;;;5.60;;
46607;SDS011;32330;51.936;7.184;2023-09-08T17:13:20;8.35;;;4.90;;
46607;SDS011;32330;51.936;7.184;2023-09-08T17:15:49;7.22;;;4.05;;
46607;SDS011;32330;51.936;7.184;2023-09-08T17:18:18;5.40;;;4.32;;
46607;SDS011;32330;51.936;7.184;2023-09-08T17:21:12;4.80;;;3.88;;
46607;SDS011;32330;51.936;7.184;2023-09-08T17:24:07;5.20;;;3.80;;
46607;SDS011;32330;51.936;7.184;2023-09-08T17:26:43;3.75;;;3.25;;
46607;SDS011;32330;51.936;7.184;2023-09-08T17:29:11;7.13;;;4.05;;
46607;SDS011;32330;51.936;7.184;2023-09-08T17:31:48;6.22;;;3.55;;
46607;SDS011;32330;51.936;7.184;2023-09-08T17:34:33;6.05;;;4.10;;
46607;SDS011;32330;51.936;7.184;2023-09-08T17:37:04;6.70;;;3.75;;
46607;SDS011;32330;51.936;7.184;2023-09-08T17:39:35;8.55;;;5.03;;
46607;SDS011;32330;51.936;7.184;2023-09-08T17:42:02;6.80;;;5.10;;
46607;SDS011;32330;51.936;7.184;2023-09-08T17:44:29;6.30;;;4.28;;
46607;SDS011;32330;51.936;7.184;2023-09-08T17:46:56;6.78;;;3.55;;
46607;SDS011;32330;51.936;7.184;2023-09-08T17:49:24;5.43;;;3.58;;
46607;SDS011;32330;51.936;7.184;2023-09-08T17:51:51;5.40;;;4.38;;
46607;SDS011;32330;51.936;7.184;2023-09-08T17:54:19;5.72;;;4.13;;
46607;SDS011;32330;51.936;7.184;2023-09-08T17:56:46;6.90;;;4.80;;
46607;SDS011;32330;51.936;7.184;2023-09-08T17:59:13;8.20;;;4.85;;
46607;SDS011;32330;51.936;7.184;2023-09-08T18:01:40;5.30;;;4.05;;
46607;SDS011;32330;51.936;7.184;2023-09-08T18:04:07;6.82;;;4.60;;
46607;SDS011;32330;51.936;7.184;2023-09-08T18:06:34;12.00;;;4.85;;
46607;SDS011;32330;51.936;7.184;2023-09-08T18:09:01;7.13;;;4.82;;
46607;SDS011;32330;51.936;7.184;2023-09-08T18:11:30;5.97;;;4.43;;
46607;SDS011;32330;51.936;7.184;2023-09-08T18:13:58;7.40;;;4.97;;
46607;SDS011;32330;51.936;7.184;2023-09-08T18:16:25;5.35;;;4.10;;
46607;SDS011;32330;51.936;7.184;2023-09-08T18:18:52;6.75;;;4.40;;
46607;SDS011;32330;51.936;7.184;2023-09-08T18:21:19;6.70;;;4.07;;
46607;SDS011;32330;51.936;7.184;2023-09-08T18:23:46;6.57;;;4.70;;
46607;SDS011;32330;51.936;7.184;2023-09-08T18:26:13;5.82;;;4.70;;
46607;SDS011;32330;51.936;7.184;2023-09-08T18:28:42;6.72;;;4.30;;
46607;SDS011;32330;51.936;7.184;2023-09-08T18:31:10;6.20;;;4.15;;
46607;SDS011;32330;51.936;7.184;2023-09-08T18:33:37;5.68;;;4.20;;
46607;SDS011;32330;51.936;7.184;2023-09-08T18:36:05;6.57;;;4.25;;
46607;SDS011;32330;51.936;7.184;2023-09-08T18:38:32;7.45;;;4.43;;
46607;SDS011;32330;51.936;7.184;2023-09-08T18:40:59;5.20;;;4.53;;
46607;SDS011;32330;51.936;7.184;2023-09-08T18:43:26;6.88;;;4.30;;
46607;SDS011;32330;51.936;7.184;2023-09-08T18:45:55;4.88;;;4.25;;
46607;SDS011;32330;51.936;7.184;2023-09-08T18:48:22;9.15;;;4.88;;
46607;SDS011;32330;51.936;7.184;2023-09-08T18:50:49;6.55;;;4.60;;